Aérodrome :
LOGIN :

S'inscrire | Disclaimer

   EN    FR    IT 

 










Légende :    VFR   VFR Marginal   IFR   IFR Intensif   IFR Très Intensif
Visi : 
Plafond : 
>= 8 km
>= 3000ft
5 à 8 km
1000 à 3000 ft
1500m à 5 km
500 à 1000 ft
800 à 1500m
200 à 500 ft
< 800m
< 200 ft
Symboles :   Orages  Brouillard  Fortes neiges  Fortes précipitations  Vent > 20 kt
SIGMETs :   Divers  Orages  Givrage  Turbulence  Onde Orograph.  Cendres Volcan.






- Altitude de l'aérodrome : 598 ft
- Code IATA : BQH


EGKB - Biggin Hill

DERNIER METAR :
  • 221350Z 30006KT 270V330 9999 BKN015 04/02 Q1037

METARs EXPIRÉS :
  • 221320Z 30007KT 260V330 9999 BKN015 04/01 Q1037
  • 221250Z 30007KT 260V320 9999 OVC013 04/02 Q1037
  • 221220Z 31007KT 9999 OVC013 04/02 Q1037
  • 221150Z 29007KT 260V320 9999 OVC012 04/02 Q1037
  • 221120Z 31007KT 280V340 9999 OVC011 04/02 Q1037

TAF TAF EGKB
Valide du 22 à 12h jusqu'au 22 à 21h UTC


221059Z 2212/2221 30005KT 9999 BKN020
PROB30
TEMPO 2212/2215 BKN009



MET'MAP, la Météo Aéronautique d'un coup d'oeil ! - Copyright ORBIFLY Décembre 2007 - Disclaimer

ORBIFLY MET'MAP TEAM :

Programmation & Développement : Alexandra Zaïnal
Sur une idée originale de : Baudouin d'Aumeries
Assistance à la programmation : Marc-Olivier Méhu
Soutien technique & logistique : Manuel Goepfert

Contact : metmap@orbifly.com




SOURCES & CREDITS :

   NOAA